sensor_id;sensor_type;location;lat;lon;timestamp;temperature;humidity
17728;DHT22;8984;49.268;12.302;2023-01-26T00:00:48;2.80;99.90
17728;DHT22;8984;49.268;12.302;2023-01-26T00:03:14;2.90;99.90
17728;DHT22;8984;49.268;12.302;2023-01-26T00:05:41;2.80;99.90
17728;DHT22;8984;49.268;12.302;2023-01-26T00:08:08;2.80;99.90
17728;DHT22;8984;49.268;12.302;2023-01-26T00:10:35;2.90;99.90
17728;DHT22;8984;49.268;12.302;2023-01-26T00:13:03;2.90;99.90
17728;DHT22;8984;49.268;12.302;2023-01-26T00:15:31;3.00;99.90
17728;DHT22;8984;49.268;12.302;2023-01-26T00:17:58;3.00;99.90
17728;DHT22;8984;49.268;12.302;2023-01-26T00:20:25;3.00;99.90
17728;DHT22;8984;49.268;12.302;2023-01-26T00:22:52;3.10;99.90
17728;DHT22;8984;49.268;12.302;2023-01-26T00:25:18;3.00;99.90
17728;DHT22;8984;49.268;12.302;2023-01-26T00:27:45;3.10;99.90
17728;DHT22;8984;49.268;12.302;2023-01-26T00:30:15;3.10;99.90
17728;DHT22;8984;49.268;12.302;2023-01-26T00:32:42;3.10;99.90
17728;DHT22;8984;49.268;12.302;2023-01-26T00:35:09;3.20;99.90
17728;DHT22;8984;49.268;12.302;2023-01-26T00:37:36;3.20;99.90
17728;DHT22;8984;49.268;12.302;2023-01-26T00:40:03;3.20;99.90
17728;DHT22;8984;49.268;12.302;2023-01-26T00:42:30;3.20;99.90
17728;DHT22;8984;49.268;12.302;2023-01-26T00:44:56;3.10;99.90
17728;DHT22;8984;49.268;12.302;2023-01-26T00:47:25;3.10;99.90
17728;DHT22;8984;49.268;12.302;2023-01-26T00:49:51;3.10;99.90
17728;DHT22;8984;49.268;12.302;2023-01-26T00:52:18;3.10;99.90
17728;DHT22;8984;49.268;12.302;2023-01-26T00:54:45;3.10;99.90
17728;DHT22;8984;49.268;12.302;2023-01-26T00:57:12;3.10;99.90
17728;DHT22;8984;49.268;12.302;2023-01-26T00:59:38;3.10;99.90
17728;DHT22;8984;49.268;12.302;2023-01-26T01:02:05;3.10;99.90
17728;DHT22;8984;49.268;12.302;2023-01-26T01:04:33;3.10;99.90
17728;DHT22;8984;49.268;12.302;2023-01-26T01:07:00;3.10;99.90
17728;DHT22;8984;49.268;12.302;2023-01-26T01:09:27;3.20;99.90
17728;DHT22;8984;49.268;12.302;2023-01-26T01:11:54;3.20;99.90
17728;DHT22;8984;49.268;12.302;2023-01-26T01:14:20;3.10;99.90
17728;DHT22;8984;49.268;12.302;2023-01-26T01:16:47;3.10;99.90
17728;DHT22;8984;49.268;12.302;2023-01-26T01:19:15;3.10;99.90
17728;DHT22;8984;49.268;12.302;2023-01-26T01:21:44;3.10;99.90
17728;DHT22;8984;49.268;12.302;2023-01-26T01:24:11;3.00;99.90
17728;DHT22;8984;49.268;12.302;2023-01-26T01:26:38;3.00;99.90
17728;DHT22;8984;49.268;12.302;2023-01-26T01:29:05;3.00;99.90
17728;DHT22;8984;49.268;12.302;2023-01-26T01:31:32;3.00;99.90
17728;DHT22;8984;49.268;12.302;2023-01-26T01:33:59;2.90;99.90
17728;DHT22;8984;49.268;12.302;2023-01-26T01:36:26;2.90;99.90
17728;DHT22;8984;49.268;12.302;2023-01-26T01:38:54;3.00;99.90
17728;DHT22;8984;49.268;12.302;2023-01-26T01:41:21;3.00;99.90
17728;DHT22;8984;49.268;12.302;2023-01-26T01:43:48;3.00;99.90
17728;DHT22;8984;49.268;12.302;2023-01-26T01:46:26;3.00;99.90
17728;DHT22;8984;49.268;12.302;2023-01-26T01:48:57;3.10;99.90
17728;DHT22;8984;49.268;12.302;2023-01-26T01:51:31;3.10;99.90
17728;DHT22;8984;49.268;12.302;2023-01-26T01:54:03;3.10;99.90
17728;DHT22;8984;49.268;12.302;2023-01-26T01:56:32;3.10;99.90
17728;DHT22;8984;49.268;12.302;2023-01-26T01:59:00;3.00;99.90
17728;DHT22;8984;49.268;12.302;2023-01-26T02:01:28;3.10;99.90
17728;DHT22;8984;49.268;12.302;2023-01-26T02:03:58;3.10;99.90
17728;DHT22;8984;49.268;12.302;2023-01-26T02:06:30;3.00;99.90
17728;DHT22;8984;49.268;12.302;2023-01-26T02:09:01;3.10;99.90
17728;DHT22;8984;49.268;12.302;2023-01-26T02:11:32;3.10;99.90
17728;DHT22;8984;49.268;12.302;2023-01-26T02:14:02;3.10;99.90
17728;DHT22;8984;49.268;12.302;2023-01-26T02:16:30;3.10;99.90
17728;DHT22;8984;49.268;12.302;2023-01-26T02:18:57;2.90;99.90
17728;DHT22;8984;49.268;12.302;2023-01-26T02:21:24;2.80;99.90
17728;DHT22;8984;49.268;12.302;2023-01-26T02:23:58;2.90;99.90
17728;DHT22;8984;49.268;12.302;2023-01-26T02:26:31;2.90;99.90
17728;DHT22;8984;49.268;12.302;2023-01-26T02:28:59;3.00;99.90
17728;DHT22;8984;49.268;12.302;2023-01-26T02:31:27;3.00;99.90
17728;DHT22;8984;49.268;12.302;2023-01-26T02:33:54;3.00;99.90
17728;DHT22;8984;49.268;12.302;2023-01-26T02:36:23;3.00;99.90
17728;DHT22;8984;49.268;12.302;2023-01-26T02:38:54;3.00;99.90
17728;DHT22;8984;49.268;12.302;2023-01-26T02:41:24;3.10;99.90
17728;DHT22;8984;49.268;12.302;2023-01-26T02:44:18;3.10;99.90
17728;DHT22;8984;49.268;12.302;2023-01-26T02:46:46;3.00;99.90
17728;DHT22;8984;49.268;12.302;2023-01-26T02:49:13;2.90;99.90
17728;DHT22;8984;49.268;12.302;2023-01-26T02:51:57;2.70;99.90
17728;DHT22;8984;49.268;12.302;2023-01-26T02:54:24;2.80;99.90
17728;DHT22;8984;49.268;12.302;2023-01-26T02:57:08;2.90;99.90
17728;DHT22;8984;49.268;12.302;2023-01-26T02:59:36;2.90;99.90
17728;DHT22;8984;49.268;12.302;2023-01-26T03:02:03;3.00;99.90
17728;DHT22;8984;49.268;12.302;2023-01-26T03:04:30;2.90;99.90
17728;DHT22;8984;49.268;12.302;2023-01-26T03:06:56;2.90;99.90
17728;DHT22;8984;49.268;12.302;2023-01-26T03:09:23;3.00;99.90
17728;DHT22;8984;49.268;12.302;2023-01-26T03:11:50;3.00;99.90
17728;DHT22;8984;49.268;12.302;2023-01-26T03:14:17;3.00;99.90
17728;DHT22;8984;49.268;12.302;2023-01-26T03:16:45;3.00;99.90
17728;DHT22;8984;49.268;12.302;2023-01-26T03:19:14;3.10;99.90
17728;DHT22;8984;49.268;12.302;2023-01-26T03:21:58;3.10;99.90
17728;DHT22;8984;49.268;12.302;2023-01-26T03:24:43;3.10;99.90
17728;DHT22;8984;49.268;12.302;2023-01-26T03:27:29;3.10;99.90
17728;DHT22;8984;49.268;12.302;2023-01-26T03:29:56;3.10;99.90
17728;DHT22;8984;49.268;12.302;2023-01-26T03:32:24;3.00;99.90
17728;DHT22;8984;49.268;12.302;2023-01-26T03:34:51;3.00;99.90
17728;DHT22;8984;49.268;12.302;2023-01-26T03:37:18;3.00;99.90
17728;DHT22;8984;49.268;12.302;2023-01-26T03:39:47;3.10;99.90
17728;DHT22;8984;49.268;12.302;2023-01-26T03:42:32;3.10;99.90
17728;DHT22;8984;49.268;12.302;2023-01-26T03:45:17;3.10;99.90
17728;DHT22;8984;49.268;12.302;2023-01-26T03:48:04;3.10;99.90
17728;DHT22;8984;49.268;12.302;2023-01-26T03:50:48;3.10;99.90
17728;DHT22;8984;49.268;12.302;2023-01-26T03:53:33;3.00;99.90
17728;DHT22;8984;49.268;12.302;2023-01-26T03:56:17;3.00;99.90
17728;DHT22;8984;49.268;12.302;2023-01-26T03:58:47;3.00;99.90
17728;DHT22;8984;49.268;12.302;2023-01-26T04:01:15;3.00;99.90
17728;DHT22;8984;49.268;12.302;2023-01-26T04:03:48;3.00;99.90
17728;DHT22;8984;49.268;12.302;2023-01-26T04:06:34;2.90;99.90
17728;DHT22;8984;49.268;12.302;2023-01-26T04:09:19;2.90;99.90
17728;DHT22;8984;49.268;12.302;2023-01-26T04:11:47;2.90;99.90
17728;DHT22;8984;49.268;12.302;2023-01-26T04:14:14;2.90;99.90
17728;DHT22;8984;49.268;12.302;2023-01-26T04:17:00;2.90;99.90
17728;DHT22;8984;49.268;12.302;2023-01-26T04:19:46;2.90;99.90
17728;DHT22;8984;49.268;12.302;2023-01-26T04:22:34;2.90;99.90
17728;DHT22;8984;49.268;12.302;2023-01-26T04:25:08;2.90;99.90
17728;DHT22;8984;49.268;12.302;2023-01-26T04:27:35;2.90;99.90
17728;DHT22;8984;49.268;12.302;2023-01-26T04:30:03;2.80;99.90
17728;DHT22;8984;49.268;12.302;2023-01-26T04:32:30;2.80;99.90
17728;DHT22;8984;49.268;12.302;2023-01-26T04:34:59;2.90;99.90
17728;DHT22;8984;49.268;12.302;2023-01-26T04:37:25;2.90;99.90
17728;DHT22;8984;49.268;12.302;2023-01-26T04:39:52;2.90;99.90
17728;DHT22;8984;49.268;12.302;2023-01-26T04:42:19;2.90;99.90
17728;DHT22;8984;49.268;12.302;2023-01-26T04:44:48;2.90;99.90
17728;DHT22;8984;49.268;12.302;2023-01-26T04:47:15;2.80;99.90
17728;DHT22;8984;49.268;12.302;2023-01-26T04:49:42;2.70;99.90
17728;DHT22;8984;49.268;12.302;2023-01-26T04:52:10;2.70;99.90
17728;DHT22;8984;49.268;12.302;2023-01-26T04:54:37;2.60;99.90
17728;DHT22;8984;49.268;12.302;2023-01-26T04:57:04;2.70;99.90
17728;DHT22;8984;49.268;12.302;2023-01-26T04:59:30;2.70;99.90
17728;DHT22;8984;49.268;12.302;2023-01-26T05:01:57;2.80;99.90
17728;DHT22;8984;49.268;12.302;2023-01-26T05:04:24;2.80;99.90
17728;DHT22;8984;49.268;12.302;2023-01-26T05:06:51;2.80;99.90
17728;DHT22;8984;49.268;12.302;2023-01-26T05:09:19;2.80;99.90
17728;DHT22;8984;49.268;12.302;2023-01-26T05:11:45;2.80;99.90
17728;DHT22;8984;49.268;12.302;2023-01-26T05:14:12;2.80;99.90
17728;DHT22;8984;49.268;12.302;2023-01-26T05:16:40;2.60;99.90
17728;DHT22;8984;49.268;12.302;2023-01-26T05:19:08;2.60;99.90
17728;DHT22;8984;49.268;12.302;2023-01-26T05:21:35;2.60;99.90
17728;DHT22;8984;49.268;12.302;2023-01-26T05:24:02;2.70;99.90
17728;DHT22;8984;49.268;12.302;2023-01-26T05:26:30;2.40;99.90
17728;DHT22;8984;49.268;12.302;2023-01-26T05:28:57;2.40;99.90
17728;DHT22;8984;49.268;12.302;2023-01-26T05:31:24;2.60;99.90
17728;DHT22;8984;49.268;12.302;2023-01-26T05:33:50;2.60;99.90
17728;DHT22;8984;49.268;12.302;2023-01-26T05:36:17;2.70;99.90
17728;DHT22;8984;49.268;12.302;2023-01-26T05:38:44;2.60;99.90
17728;DHT22;8984;49.268;12.302;2023-01-26T05:41:11;2.60;99.90
17728;DHT22;8984;49.268;12.302;2023-01-26T05:43:39;2.70;99.90
17728;DHT22;8984;49.268;12.302;2023-01-26T05:46:06;2.70;99.90
17728;DHT22;8984;49.268;12.302;2023-01-26T05:48:33;2.80;99.90
17728;DHT22;8984;49.268;12.302;2023-01-26T05:51:00;2.70;99.90
17728;DHT22;8984;49.268;12.302;2023-01-26T05:53:26;2.80;99.90
17728;DHT22;8984;49.268;12.302;2023-01-26T05:55:53;2.80;99.90
17728;DHT22;8984;49.268;12.302;2023-01-26T05:58:20;2.90;99.90
17728;DHT22;8984;49.268;12.302;2023-01-26T06:00:49;2.90;99.90
17728;DHT22;8984;49.268;12.302;2023-01-26T06:03:15;3.00;99.90
17728;DHT22;8984;49.268;12.302;2023-01-26T06:05:42;2.80;99.90
17728;DHT22;8984;49.268;12.302;2023-01-26T06:08:09;2.90;99.90
17728;DHT22;8984;49.268;12.302;2023-01-26T06:10:35;2.80;99.90
17728;DHT22;8984;49.268;12.302;2023-01-26T06:13:02;2.90;99.90
17728;DHT22;8984;49.268;12.302;2023-01-26T06:15:29;2.90;99.90
17728;DHT22;8984;49.268;12.302;2023-01-26T06:17:59;2.90;99.90
17728;DHT22;8984;49.268;12.302;2023-01-26T06:20:26;2.70;99.90
17728;DHT22;8984;49.268;12.302;2023-01-26T06:22:53;2.50;99.90
17728;DHT22;8984;49.268;12.302;2023-01-26T06:25:20;2.60;99.90
17728;DHT22;8984;49.268;12.302;2023-01-26T06:27:46;2.50;99.90
17728;DHT22;8984;49.268;12.302;2023-01-26T06:30:14;2.60;99.90
17728;DHT22;8984;49.268;12.302;2023-01-26T06:32:40;2.70;99.90
17728;DHT22;8984;49.268;12.302;2023-01-26T06:35:09;2.60;99.90
17728;DHT22;8984;49.268;12.302;2023-01-26T06:37:36;2.40;99.90
17728;DHT22;8984;49.268;12.302;2023-01-26T06:40:18;2.20;99.90
17728;DHT22;8984;49.268;12.302;2023-01-26T06:42:48;2.30;99.90
17728;DHT22;8984;49.268;12.302;2023-01-26T06:45:15;2.40;99.90
17728;DHT22;8984;49.268;12.302;2023-01-26T06:47:45;2.30;99.90
17728;DHT22;8984;49.268;12.302;2023-01-26T06:50:14;2.50;99.90
17728;DHT22;8984;49.268;12.302;2023-01-26T06:52:41;2.50;99.90
17728;DHT22;8984;49.268;12.302;2023-01-26T06:55:16;2.50;99.90
17728;DHT22;8984;49.268;12.302;2023-01-26T06:57:44;2.50;99.90
17728;DHT22;8984;49.268;12.302;2023-01-26T07:00:12;2.50;99.90
17728;DHT22;8984;49.268;12.302;2023-01-26T07:02:39;2.50;99.90
17728;DHT22;8984;49.268;12.302;2023-01-26T07:05:06;2.60;99.90
17728;DHT22;8984;49.268;12.302;2023-01-26T07:07:34;2.60;99.90
17728;DHT22;8984;49.268;12.302;2023-01-26T07:10:02;2.40;99.90
17728;DHT22;8984;49.268;12.302;2023-01-26T07:12:37;2.40;99.90
17728;DHT22;8984;49.268;12.302;2023-01-26T07:15:05;2.30;99.90
17728;DHT22;8984;49.268;12.302;2023-01-26T07:17:32;2.50;99.90
17728;DHT22;8984;49.268;12.302;2023-01-26T07:19:59;2.50;99.90
17728;DHT22;8984;49.268;12.302;2023-01-26T07:22:25;2.60;99.90
17728;DHT22;8984;49.268;12.302;2023-01-26T07:24:53;2.40;99.90
17728;DHT22;8984;49.268;12.302;2023-01-26T07:27:20;2.50;99.90
17728;DHT22;8984;49.268;12.302;2023-01-26T07:29:47;2.60;99.90
17728;DHT22;8984;49.268;12.302;2023-01-26T07:32:14;2.60;99.90
17728;DHT22;8984;49.268;12.302;2023-01-26T07:34:41;2.70;99.90
17728;DHT22;8984;49.268;12.302;2023-01-26T07:37:08;2.70;99.90
17728;DHT22;8984;49.268;12.302;2023-01-26T07:39:35;2.60;99.90
17728;DHT22;8984;49.268;12.302;2023-01-26T07:42:03;2.60;99.90
17728;DHT22;8984;49.268;12.302;2023-01-26T07:44:30;2.60;99.90
17728;DHT22;8984;49.268;12.302;2023-01-26T07:46:56;2.60;99.90
17728;DHT22;8984;49.268;12.302;2023-01-26T07:49:23;2.70;99.90
17728;DHT22;8984;49.268;12.302;2023-01-26T07:51:50;2.70;99.90
17728;DHT22;8984;49.268;12.302;2023-01-26T07:54:18;2.80;99.90
17728;DHT22;8984;49.268;12.302;2023-01-26T07:56:50;2.70;99.90
17728;DHT22;8984;49.268;12.302;2023-01-26T07:59:18;2.70;99.90
17728;DHT22;8984;49.268;12.302;2023-01-26T08:01:45;2.70;99.90
17728;DHT22;8984;49.268;12.302;2023-01-26T08:04:12;2.70;99.90
17728;DHT22;8984;49.268;12.302;2023-01-26T08:06:38;2.70;99.90
17728;DHT22;8984;49.268;12.302;2023-01-26T08:09:05;2.70;99.90
17728;DHT22;8984;49.268;12.302;2023-01-26T08:11:32;2.70;99.90
17728;DHT22;8984;49.268;12.302;2023-01-26T08:13:59;2.70;99.90
17728;DHT22;8984;49.268;12.302;2023-01-26T08:16:27;2.70;99.90
17728;DHT22;8984;49.268;12.302;2023-01-26T08:18:54;2.70;99.90
17728;DHT22;8984;49.268;12.302;2023-01-26T08:21:20;2.70;99.90
17728;DHT22;8984;49.268;12.302;2023-01-26T08:23:48;2.70;99.90
17728;DHT22;8984;49.268;12.302;2023-01-26T08:26:15;2.80;99.90
17728;DHT22;8984;49.268;12.302;2023-01-26T08:28:43;2.80;99.90
17728;DHT22;8984;49.268;12.302;2023-01-26T08:31:11;2.90;99.90
17728;DHT22;8984;49.268;12.302;2023-01-26T08:33:42;2.80;99.90
17728;DHT22;8984;49.268;12.302;2023-01-26T08:36:11;2.80;99.90
17728;DHT22;8984;49.268;12.302;2023-01-26T08:38:38;2.80;99.90
17728;DHT22;8984;49.268;12.302;2023-01-26T08:41:05;2.80;99.90
17728;DHT22;8984;49.268;12.302;2023-01-26T08:43:32;2.80;99.90
17728;DHT22;8984;49.268;12.302;2023-01-26T08:45:58;2.80;99.90
17728;DHT22;8984;49.268;12.302;2023-01-26T08:48:25;2.70;99.90
17728;DHT22;8984;49.268;12.302;2023-01-26T08:50:55;2.80;99.90
17728;DHT22;8984;49.268;12.302;2023-01-26T08:53:22;2.90;99.90
17728;DHT22;8984;49.268;12.302;2023-01-26T08:55:50;2.80;99.90
17728;DHT22;8984;49.268;12.302;2023-01-26T08:58:17;2.80;99.90
17728;DHT22;8984;49.268;12.302;2023-01-26T09:00:45;2.90;99.90
17728;DHT22;8984;49.268;12.302;2023-01-26T09:03:11;2.90;99.90
17728;DHT22;8984;49.268;12.302;2023-01-26T09:05:39;3.00;99.90
17728;DHT22;8984;49.268;12.302;2023-01-26T09:08:08;2.70;99.90
17728;DHT22;8984;49.268;12.302;2023-01-26T09:10:36;2.60;99.90
17728;DHT22;8984;49.268;12.302;2023-01-26T09:13:03;2.70;99.90
17728;DHT22;8984;49.268;12.302;2023-01-26T09:15:31;2.80;99.90
17728;DHT22;8984;49.268;12.302;2023-01-26T09:17:57;2.80;99.90
17728;DHT22;8984;49.268;12.302;2023-01-26T09:20:24;2.90;99.90
17728;DHT22;8984;49.268;12.302;2023-01-26T09:22:51;2.80;99.90
17728;DHT22;8984;49.268;12.302;2023-01-26T09:25:20;2.70;99.90
17728;DHT22;8984;49.268;12.302;2023-01-26T09:27:47;2.80;99.90
17728;DHT22;8984;49.268;12.302;2023-01-26T09:30:14;2.90;99.90
17728;DHT22;8984;49.268;12.302;2023-01-26T09:32:41;2.80;99.90
17728;DHT22;8984;49.268;12.302;2023-01-26T09:35:08;2.90;99.90
17728;DHT22;8984;49.268;12.302;2023-01-26T09:37:36;2.90;99.90
17728;DHT22;8984;49.268;12.302;2023-01-26T09:40:04;3.00;99.90
17728;DHT22;8984;49.268;12.302;2023-01-26T09:42:39;3.00;99.90
17728;DHT22;8984;49.268;12.302;2023-01-26T09:45:20;3.10;99.90
17728;DHT22;8984;49.268;12.302;2023-01-26T09:47:58;3.10;99.90
17728;DHT22;8984;49.268;12.302;2023-01-26T09:50:35;3.00;99.90
17728;DHT22;8984;49.268;12.302;2023-01-26T09:53:05;3.10;99.90
17728;DHT22;8984;49.268;12.302;2023-01-26T09:55:35;3.10;99.90
17728;DHT22;8984;49.268;12.302;2023-01-26T09:58:05;3.20;99.90
17728;DHT22;8984;49.268;12.302;2023-01-26T10:00:37;3.30;99.90
17728;DHT22;8984;49.268;12.302;2023-01-26T10:03:12;3.40;99.90
17728;DHT22;8984;49.268;12.302;2023-01-26T10:05:46;3.40;99.90
17728;DHT22;8984;49.268;12.302;2023-01-26T10:08:17;3.40;99.90
17728;DHT22;8984;49.268;12.302;2023-01-26T10:10:47;3.30;99.90
17728;DHT22;8984;49.268;12.302;2023-01-26T10:13:16;3.40;99.90
17728;DHT22;8984;49.268;12.302;2023-01-26T10:15:46;3.50;99.90
17728;DHT22;8984;49.268;12.302;2023-01-26T10:18:17;3.50;99.90
17728;DHT22;8984;49.268;12.302;2023-01-26T10:20:48;3.50;99.90
17728;DHT22;8984;49.268;12.302;2023-01-26T10:23:19;3.60;99.90
17728;DHT22;8984;49.268;12.302;2023-01-26T10:25:48;3.60;99.90
17728;DHT22;8984;49.268;12.302;2023-01-26T10:28:21;3.60;99.90
17728;DHT22;8984;49.268;12.302;2023-01-26T10:30:51;3.70;99.90
17728;DHT22;8984;49.268;12.302;2023-01-26T10:33:22;3.60;99.90
17728;DHT22;8984;49.268;12.302;2023-01-26T10:35:50;3.60;99.90
17728;DHT22;8984;49.268;12.302;2023-01-26T10:38:40;3.60;99.90
17728;DHT22;8984;49.268;12.302;2023-01-26T10:41:22;3.60;99.90
17728;DHT22;8984;49.268;12.302;2023-01-26T10:43:52;3.60;99.90
17728;DHT22;8984;49.268;12.302;2023-01-26T10:46:27;3.60;99.90
17728;DHT22;8984;49.268;12.302;2023-01-26T10:48:56;3.60;99.90
17728;DHT22;8984;49.268;12.302;2023-01-26T10:51:25;3.70;99.90
17728;DHT22;8984;49.268;12.302;2023-01-26T10:54:12;3.70;99.90
17728;DHT22;8984;49.268;12.302;2023-01-26T10:56:43;3.70;99.90
17728;DHT22;8984;49.268;12.302;2023-01-26T10:59:26;3.70;99.90
17728;DHT22;8984;49.268;12.302;2023-01-26T11:01:55;3.50;99.90
17728;DHT22;8984;49.268;12.302;2023-01-26T11:04:23;3.50;99.90
17728;DHT22;8984;49.268;12.302;2023-01-26T11:06:51;3.40;99.90
17728;DHT22;8984;49.268;12.302;2023-01-26T11:09:20;3.40;99.90
17728;DHT22;8984;49.268;12.302;2023-01-26T11:12:00;3.40;99.90
17728;DHT22;8984;49.268;12.302;2023-01-26T11:14:30;3.40;99.90
17728;DHT22;8984;49.268;12.302;2023-01-26T11:17:08;3.40;99.90
17728;DHT22;8984;49.268;12.302;2023-01-26T11:19:56;3.30;99.90
17728;DHT22;8984;49.268;12.302;2023-01-26T11:22:31;3.30;99.90
17728;DHT22;8984;49.268;12.302;2023-01-26T11:25:07;3.30;99.90
17728;DHT22;8984;49.268;12.302;2023-01-26T11:27:45;3.30;99.90
17728;DHT22;8984;49.268;12.302;2023-01-26T11:30:47;3.50;99.90
17728;DHT22;8984;49.268;12.302;2023-01-26T11:33:24;3.10;99.90
17728;DHT22;8984;49.268;12.302;2023-01-26T11:36:02;2.90;99.90
17728;DHT22;8984;49.268;12.302;2023-01-26T11:38:38;2.90;99.90
17728;DHT22;8984;49.268;12.302;2023-01-26T11:41:33;3.10;99.90
17728;DHT22;8984;49.268;12.302;2023-01-26T11:44:21;3.10;99.90
17728;DHT22;8984;49.268;12.302;2023-01-26T11:47:00;3.20;99.90
17728;DHT22;8984;49.268;12.302;2023-01-26T11:49:42;3.20;99.90
17728;DHT22;8984;49.268;12.302;2023-01-26T11:52:16;3.30;99.90
17728;DHT22;8984;49.268;12.302;2023-01-26T11:55:00;3.30;99.90
17728;DHT22;8984;49.268;12.302;2023-01-26T11:57:37;3.20;99.90
17728;DHT22;8984;49.268;12.302;2023-01-26T12:00:13;3.30;99.90
17728;DHT22;8984;49.268;12.302;2023-01-26T12:02:55;3.30;99.90
17728;DHT22;8984;49.268;12.302;2023-01-26T12:05:28;3.40;99.90
17728;DHT22;8984;49.268;12.302;2023-01-26T12:08:01;3.50;99.90
17728;DHT22;8984;49.268;12.302;2023-01-26T12:10:34;3.50;99.90
17728;DHT22;8984;49.268;12.302;2023-01-26T12:13:06;3.50;99.90
17728;DHT22;8984;49.268;12.302;2023-01-26T12:15:37;3.50;99.90
17728;DHT22;8984;49.268;12.302;2023-01-26T12:18:13;3.60;99.90
17728;DHT22;8984;49.268;12.302;2023-01-26T12:20:44;3.60;99.90
17728;DHT22;8984;49.268;12.302;2023-01-26T12:23:15;3.60;99.90
17728;DHT22;8984;49.268;12.302;2023-01-26T12:25:48;3.70;99.90
17728;DHT22;8984;49.268;12.302;2023-01-26T12:28:20;3.60;99.90
17728;DHT22;8984;49.268;12.302;2023-01-26T12:30:56;3.30;99.90
17728;DHT22;8984;49.268;12.302;2023-01-26T12:33:26;3.30;99.90
17728;DHT22;8984;49.268;12.302;2023-01-26T12:36:14;3.30;99.90
17728;DHT22;8984;49.268;12.302;2023-01-26T12:38:53;3.30;99.90
17728;DHT22;8984;49.268;12.302;2023-01-26T12:41:30;3.40;99.90
17728;DHT22;8984;49.268;12.302;2023-01-26T12:44:09;3.40;99.90
17728;DHT22;8984;49.268;12.302;2023-01-26T12:46:45;3.40;99.90
17728;DHT22;8984;49.268;12.302;2023-01-26T12:49:18;3.30;99.90
17728;DHT22;8984;49.268;12.302;2023-01-26T12:51:49;3.20;99.90
17728;DHT22;8984;49.268;12.302;2023-01-26T12:54:22;3.30;99.90
17728;DHT22;8984;49.268;12.302;2023-01-26T12:56:56;3.40;99.90
17728;DHT22;8984;49.268;12.302;2023-01-26T12:59:31;3.30;99.90
17728;DHT22;8984;49.268;12.302;2023-01-26T13:02:00;3.30;99.90
17728;DHT22;8984;49.268;12.302;2023-01-26T13:04:36;3.20;99.90
17728;DHT22;8984;49.268;12.302;2023-01-26T13:07:26;2.90;99.90
17728;DHT22;8984;49.268;12.302;2023-01-26T13:10:27;3.00;99.90
17728;DHT22;8984;49.268;12.302;2023-01-26T13:12:57;2.90;99.90
17728;DHT22;8984;49.268;12.302;2023-01-26T13:15:26;3.00;99.90
17728;DHT22;8984;49.268;12.302;2023-01-26T13:17:55;3.10;99.90
17728;DHT22;8984;49.268;12.302;2023-01-26T13:20:42;3.20;99.90
17728;DHT22;8984;49.268;12.302;2023-01-26T13:23:39;3.00;99.90
17728;DHT22;8984;49.268;12.302;2023-01-26T13:26:13;3.00;99.90
17728;DHT22;8984;49.268;12.302;2023-01-26T13:28:40;2.90;99.90
17728;DHT22;8984;49.268;12.302;2023-01-26T13:31:09;3.10;99.90
17728;DHT22;8984;49.268;12.302;2023-01-26T13:33:36;2.90;99.90
17728;DHT22;8984;49.268;12.302;2023-01-26T13:36:13;3.00;99.90
17728;DHT22;8984;49.268;12.302;2023-01-26T13:38:42;2.80;99.90
17728;DHT22;8984;49.268;12.302;2023-01-26T13:41:16;3.00;99.90
17728;DHT22;8984;49.268;12.302;2023-01-26T13:43:48;2.70;99.90
17728;DHT22;8984;49.268;12.302;2023-01-26T13:46:21;2.80;99.90
17728;DHT22;8984;49.268;12.302;2023-01-26T13:48:50;2.90;99.90
17728;DHT22;8984;49.268;12.302;2023-01-26T13:51:21;3.10;99.90
17728;DHT22;8984;49.268;12.302;2023-01-26T13:53:55;3.10;99.90
17728;DHT22;8984;49.268;12.302;2023-01-26T13:56:27;3.20;99.90
17728;DHT22;8984;49.268;12.302;2023-01-26T13:59:02;3.30;99.90
17728;DHT22;8984;49.268;12.302;2023-01-26T14:01:29;3.30;99.90
17728;DHT22;8984;49.268;12.302;2023-01-26T14:04:04;3.30;99.90
17728;DHT22;8984;49.268;12.302;2023-01-26T14:06:33;3.20;99.90
17728;DHT22;8984;49.268;12.302;2023-01-26T14:09:02;3.20;99.90
17728;DHT22;8984;49.268;12.302;2023-01-26T14:11:32;2.80;99.90
17728;DHT22;8984;49.268;12.302;2023-01-26T14:14:00;2.80;99.90
17728;DHT22;8984;49.268;12.302;2023-01-26T14:16:29;2.90;99.90
17728;DHT22;8984;49.268;12.302;2023-01-26T14:19:04;3.00;99.90
17728;DHT22;8984;49.268;12.302;2023-01-26T14:21:44;3.10;99.90
17728;DHT22;8984;49.268;12.302;2023-01-26T14:24:11;2.90;99.90
17728;DHT22;8984;49.268;12.302;2023-01-26T14:26:40;3.00;99.90
17728;DHT22;8984;49.268;12.302;2023-01-26T14:29:10;3.00;99.90
17728;DHT22;8984;49.268;12.302;2023-01-26T14:31:38;3.00;99.90
17728;DHT22;8984;49.268;12.302;2023-01-26T14:34:08;3.10;99.90
17728;DHT22;8984;49.268;12.302;2023-01-26T14:36:36;3.10;99.90
17728;DHT22;8984;49.268;12.302;2023-01-26T14:39:15;3.20;99.90
17728;DHT22;8984;49.268;12.302;2023-01-26T14:41:42;3.20;99.90
17728;DHT22;8984;49.268;12.302;2023-01-26T14:44:10;3.20;99.90
17728;DHT22;8984;49.268;12.302;2023-01-26T14:46:45;3.30;99.90
17728;DHT22;8984;49.268;12.302;2023-01-26T14:49:20;3.30;99.90
17728;DHT22;8984;49.268;12.302;2023-01-26T14:51:54;3.30;99.90
17728;DHT22;8984;49.268;12.302;2023-01-26T14:54:26;3.30;99.90
17728;DHT22;8984;49.268;12.302;2023-01-26T14:56:54;3.40;99.90
17728;DHT22;8984;49.268;12.302;2023-01-26T14:59:24;3.40;99.90
17728;DHT22;8984;49.268;12.302;2023-01-26T15:02:02;3.40;99.90
17728;DHT22;8984;49.268;12.302;2023-01-26T15:04:35;3.40;99.90
17728;DHT22;8984;49.268;12.302;2023-01-26T15:07:31;3.40;99.90
17728;DHT22;8984;49.268;12.302;2023-01-26T15:09:59;3.40;99.90
17728;DHT22;8984;49.268;12.302;2023-01-26T15:12:25;3.30;99.90
17728;DHT22;8984;49.268;12.302;2023-01-26T15:14:55;3.30;99.90
17728;DHT22;8984;49.268;12.302;2023-01-26T15:17:27;3.20;99.90
17728;DHT22;8984;49.268;12.302;2023-01-26T15:19:54;3.20;99.90
17728;DHT22;8984;49.268;12.302;2023-01-26T15:22:23;3.30;99.90
17728;DHT22;8984;49.268;12.302;2023-01-26T15:25:16;3.30;99.90
17728;DHT22;8984;49.268;12.302;2023-01-26T15:27:48;3.40;99.90
17728;DHT22;8984;49.268;12.302;2023-01-26T15:30:18;3.30;99.90
17728;DHT22;8984;49.268;12.302;2023-01-26T15:32:45;3.30;99.90
17728;DHT22;8984;49.268;12.302;2023-01-26T15:35:23;3.30;99.90
17728;DHT22;8984;49.268;12.302;2023-01-26T15:37:59;3.40;99.90
17728;DHT22;8984;49.268;12.302;2023-01-26T15:40:28;3.40;99.90
17728;DHT22;8984;49.268;12.302;2023-01-26T15:43:10;3.30;99.90
17728;DHT22;8984;49.268;12.302;2023-01-26T15:45:38;3.30;99.90
17728;DHT22;8984;49.268;12.302;2023-01-26T15:48:07;3.30;99.90
17728;DHT22;8984;49.268;12.302;2023-01-26T15:50:34;3.30;99.90
17728;DHT22;8984;49.268;12.302;2023-01-26T15:53:01;3.20;99.90
17728;DHT22;8984;49.268;12.302;2023-01-26T15:55:31;3.20;99.90
17728;DHT22;8984;49.268;12.302;2023-01-26T15:57:58;3.20;99.90
17728;DHT22;8984;49.268;12.302;2023-01-26T16:00:25;3.20;99.90
17728;DHT22;8984;49.268;12.302;2023-01-26T16:02:52;3.40;99.90
17728;DHT22;8984;49.268;12.302;2023-01-26T16:05:23;3.10;99.90
17728;DHT22;8984;49.268;12.302;2023-01-26T16:07:50;3.10;99.90